createdAt,value
2018-05-25T00:00:24.871Z,7.70
2018-05-25T00:02:52.478Z,8.37
2018-05-25T00:05:20.127Z,8.10
2018-05-25T00:07:47.742Z,7.37
2018-05-25T00:10:15.383Z,8.30
2018-05-25T00:12:43.022Z,8.60
2018-05-25T00:15:10.646Z,7.77
2018-05-25T00:17:38.294Z,8.60
2018-05-25T00:20:05.907Z,8.10
2018-05-25T00:22:33.563Z,9.90
2018-05-25T00:25:01.180Z,8.27
2018-05-25T00:27:28.833Z,9.40
2018-05-25T00:29:57.123Z,7.90
2018-05-25T00:32:24.768Z,8.70
2018-05-25T00:34:52.376Z,8.83
2018-05-25T00:37:20.018Z,8.23
2018-05-25T00:39:47.630Z,8.60
2018-05-25T00:42:15.278Z,9.53
2018-05-25T00:44:42.899Z,8.57
2018-05-25T00:47:10.547Z,8.83
2018-05-25T00:49:38.160Z,9.73
2018-05-25T00:52:05.818Z,8.77
2018-05-25T00:54:33.432Z,9.13
2018-05-25T00:57:01.093Z,9.30
2018-05-25T00:59:28.698Z,8.70
2018-05-25T01:01:56.347Z,9.50
2018-05-25T01:04:23.961Z,9.90
2018-05-25T01:06:51.625Z,10.40
2018-05-25T01:09:19.244Z,11.87
2018-05-25T01:11:46.903Z,9.97
2018-05-25T01:14:14.519Z,10.50
2018-05-25T01:16:42.174Z,10.83
2018-05-25T01:19:09.790Z,10.77
2018-05-25T01:21:37.448Z,10.97
2018-05-25T01:24:05.062Z,10.83
2018-05-25T01:26:32.727Z,11.07
2018-05-25T01:29:00.447Z,11.90
2018-05-25T01:31:28.103Z,10.87
2018-05-25T01:33:55.803Z,11.30
2018-05-25T01:36:23.454Z,11.60
2018-05-25T01:38:51.070Z,10.60
2018-05-25T01:41:18.730Z,11.80
2018-05-25T01:43:46.355Z,12.27
2018-05-25T01:46:14.014Z,12.13
2018-05-25T01:48:41.622Z,10.80
2018-05-25T01:51:09.266Z,9.77
2018-05-25T01:53:36.879Z,10.67
2018-05-25T01:56:04.540Z,10.63
2018-05-25T01:58:32.158Z,10.80
2018-05-25T02:00:59.819Z,10.83
2018-05-25T02:03:27.435Z,12.23
2018-05-25T02:05:55.091Z,10.43
2018-05-25T02:08:22.708Z,11.67
2018-05-25T02:10:50.322Z,11.30
2018-05-25T02:13:17.980Z,12.27
2018-05-25T02:15:45.673Z,10.83
2018-05-25T02:18:13.331Z,10.10
2018-05-25T02:20:40.947Z,12.47
2018-05-25T02:23:08.619Z,11.83
2018-05-25T02:25:36.239Z,13.43
2018-05-25T02:28:03.894Z,13.37
2018-05-25T02:30:31.512Z,12.33
2018-05-25T02:32:59.319Z,13.50
2018-05-25T02:35:26.931Z,13.63
2018-05-25T02:37:54.591Z,12.20
2018-05-25T02:40:22.347Z,12.40
2018-05-25T02:42:49.995Z,14.60
2018-05-25T02:45:17.615Z,12.83
2018-05-25T02:47:45.279Z,13.27
2018-05-25T02:50:12.895Z,12.47
2018-05-25T02:52:40.556Z,14.50
2018-05-25T02:55:08.175Z,13.50
2018-05-25T02:57:35.833Z,14.77
2018-05-25T03:00:03.522Z,13.90
2018-05-25T03:02:31.175Z,13.23
2018-05-25T03:04:58.791Z,14.50
2018-05-25T03:07:26.442Z,13.20
2018-05-25T03:09:54.123Z,13.10
2018-05-25T03:12:21.776Z,12.40
2018-05-25T03:14:49.394Z,12.67
2018-05-25T03:17:17.054Z,13.73
2018-05-25T03:19:44.680Z,13.13
2018-05-25T03:22:12.341Z,11.70
2018-05-25T03:24:39.963Z,13.03
2018-05-25T03:27:07.623Z,12.63
2018-05-25T03:29:35.232Z,13.13
2018-05-25T03:32:02.886Z,12.50
2018-05-25T03:34:30.500Z,13.60
2018-05-25T03:36:58.154Z,14.27
2018-05-25T03:39:25.766Z,13.73
2018-05-25T03:41:53.418Z,13.33
2018-05-25T03:44:21.035Z,14.10
2018-05-25T03:46:48.703Z,13.20
2018-05-25T03:49:16.311Z,14.70
2018-05-25T03:51:43.969Z,13.70
2018-05-25T03:54:11.602Z,12.30
2018-05-25T03:56:39.252Z,11.70
2018-05-25T03:59:18.780Z,10.03
2018-05-25T04:01:58.370Z,11.37
2018-05-25T04:04:25.988Z,11.07
2018-05-25T04:06:53.644Z,10.97
2018-05-25T04:09:21.263Z,10.97
2018-05-25T04:11:48.928Z,12.13
2018-05-25T04:14:16.550Z,11.77
2018-05-25T04:16:44.212Z,11.70
2018-05-25T04:19:11.833Z,13.00
2018-05-25T04:21:39.491Z,12.30
2018-05-25T04:24:07.102Z,12.93
2018-05-25T04:26:34.726Z,13.60
2018-05-25T04:29:02.383Z,13.10
2018-05-25T04:31:29.996Z,13.13
2018-05-25T04:33:57.651Z,13.30
2018-05-25T04:36:25.270Z,12.37
2018-05-25T04:38:52.926Z,11.93
2018-05-25T04:41:20.534Z,11.43
2018-05-25T04:43:48.187Z,11.73
2018-05-25T04:46:15.799Z,12.13
2018-05-25T04:48:43.459Z,12.77
2018-05-25T04:51:11.079Z,11.80
2018-05-25T04:53:38.802Z,12.60
2018-05-25T04:56:06.388Z,12.70
2018-05-25T04:58:34.048Z,13.27
2018-05-25T05:01:01.666Z,12.20
2018-05-25T05:03:29.323Z,13.50
2018-05-25T05:05:56.936Z,12.93
2018-05-25T05:08:24.599Z,12.83
2018-05-25T05:10:52.211Z,12.30
2018-05-25T05:13:20.027Z,12.63
2018-05-25T05:15:47.649Z,13.33
2018-05-25T05:18:15.299Z,13.30
2018-05-25T05:20:42.907Z,13.00
2018-05-25T05:23:10.563Z,12.40
2018-05-25T05:25:38.184Z,13.23
2018-05-25T05:28:05.844Z,13.07
2018-05-25T05:30:33.548Z,12.43
2018-05-25T05:33:01.203Z,12.50
2018-05-25T05:35:28.830Z,13.53
2018-05-25T05:37:56.492Z,13.53
2018-05-25T05:40:24.103Z,12.70
2018-05-25T05:42:51.755Z,12.67
2018-05-25T05:45:19.366Z,14.73
2018-05-25T05:47:47.023Z,13.70
2018-05-25T05:50:14.642Z,14.00
2018-05-25T05:52:42.294Z,12.70
2018-05-25T05:55:09.907Z,13.40
2018-05-25T05:57:37.563Z,14.67
2018-05-25T06:00:05.188Z,14.20
2018-05-25T06:02:32.851Z,15.27
2018-05-25T06:05:00.466Z,15.47
2018-05-25T06:07:28.130Z,14.80
2018-05-25T06:09:55.750Z,14.20
2018-05-25T06:12:23.433Z,13.90
2018-05-25T06:14:51.051Z,15.60
2018-05-25T06:17:18.711Z,15.27
2018-05-25T06:19:46.331Z,14.60
2018-05-25T06:22:13.988Z,14.27
2018-05-25T06:24:41.599Z,14.60
2018-05-25T06:27:09.258Z,17.03
2018-05-25T06:29:36.870Z,16.07
2018-05-25T06:32:04.498Z,16.00
2018-05-25T06:34:32.469Z,14.80
2018-05-25T06:37:00.334Z,17.03
2018-05-25T06:39:28.095Z,17.30
2018-05-25T06:41:55.817Z,17.03
2018-05-25T06:44:23.781Z,16.20
2018-05-25T06:46:51.598Z,16.20
2018-05-25T06:49:19.416Z,15.37
2018-05-25T06:51:47.108Z,17.30
2018-05-25T06:54:14.890Z,15.97
2018-05-25T06:56:42.616Z,17.20
2018-05-25T06:59:10.422Z,17.00
2018-05-25T07:01:38.128Z,16.00
2018-05-25T07:04:06.001Z,16.07
2018-05-25T07:06:33.815Z,16.53
2018-05-25T07:09:01.627Z,18.50
2018-05-25T07:11:29.447Z,16.90
2018-05-25T07:13:57.315Z,17.13
2018-05-25T07:16:25.079Z,18.43
2018-05-25T07:18:52.735Z,19.50
2018-05-25T07:21:20.350Z,19.50
2018-05-25T07:23:48.011Z,21.47
2018-05-25T07:26:15.624Z,21.47
2018-05-25T07:28:43.290Z,20.40
2018-05-25T07:31:11.004Z,20.07
2018-05-25T07:33:38.821Z,18.70
2018-05-25T07:36:06.582Z,19.47
2018-05-25T07:38:34.448Z,21.37
2018-05-25T07:41:02.172Z,20.50
2018-05-25T07:43:29.980Z,19.83
2018-05-25T07:45:57.705Z,19.93
2018-05-25T07:48:25.471Z,17.40
2018-05-25T07:50:53.269Z,18.40
2018-05-25T07:53:21.082Z,17.50
2018-05-25T07:55:48.900Z,16.73
2018-05-25T07:58:16.717Z,15.80
2018-05-25T08:00:44.533Z,16.57
2018-05-25T08:03:12.400Z,15.10
2018-05-25T08:05:40.117Z,14.50
2018-05-25T08:08:07.929Z,14.87
2018-05-25T08:10:35.695Z,13.73
2018-05-25T08:13:03.563Z,13.30
2018-05-25T08:15:31.285Z,13.13
2018-05-25T08:17:59.004Z,14.20
2018-05-25T08:20:26.649Z,14.53
2018-05-25T08:22:54.516Z,10.50
2018-05-25T08:25:22.175Z,11.23
2018-05-25T08:27:49.830Z,13.33
2018-05-25T08:30:17.502Z,13.50
2018-05-25T08:32:45.471Z,15.80
2018-05-25T08:35:13.338Z,14.30
2018-05-25T08:37:41.106Z,14.73
2018-05-25T08:40:08.972Z,12.40
2018-05-25T08:42:36.734Z,13.60
2018-05-25T08:45:04.568Z,12.50
2018-05-25T08:47:32.307Z,13.87
2018-05-25T08:50:00.024Z,14.70
2018-05-25T08:52:27.791Z,13.80
2018-05-25T08:54:55.659Z,14.87
2018-05-25T08:57:23.425Z,15.90
2018-05-25T08:59:51.452Z,17.30
2018-05-25T09:02:19.158Z,12.63
2018-05-25T09:04:47.025Z,16.00
2018-05-25T09:07:14.686Z,13.30
2018-05-25T09:09:42.355Z,12.37
2018-05-25T09:12:10.007Z,14.73
2018-05-25T09:14:37.772Z,14.63
2018-05-25T09:17:05.484Z,16.50
2018-05-25T09:19:33.203Z,16.30
2018-05-25T09:22:00.967Z,16.80
2018-05-25T09:24:28.833Z,16.93
2018-05-25T09:26:56.597Z,14.67
2018-05-25T09:29:24.465Z,13.27
2018-05-25T09:31:52.186Z,14.90
2018-05-25T09:34:19.993Z,13.80
2018-05-25T09:36:47.721Z,16.20
2018-05-25T09:39:15.523Z,13.60
2018-05-25T09:41:43.180Z,16.30
2018-05-25T09:44:11.052Z,12.33
2018-05-25T09:46:38.817Z,14.40
2018-05-25T09:49:06.683Z,15.70
2018-05-25T09:51:34.424Z,14.37
2018-05-25T09:54:02.165Z,15.30
2018-05-25T09:56:29.978Z,14.00
2018-05-25T09:58:57.849Z,13.50
2018-05-25T10:01:25.712Z,14.77
2018-05-25T10:03:53.577Z,16.10
2018-05-25T10:06:21.342Z,15.00
2018-05-25T10:08:49.209Z,14.50
2018-05-25T10:11:16.968Z,14.80
2018-05-25T10:13:44.631Z,14.73
2018-05-25T10:16:12.255Z,15.33
2018-05-25T10:18:39.906Z,16.10
2018-05-25T10:21:07.537Z,15.80
2018-05-25T10:23:35.255Z,14.20
2018-05-25T10:26:02.878Z,12.60
2018-05-25T10:28:30.527Z,12.40
2018-05-25T10:30:58.176Z,14.80
2018-05-25T10:33:25.839Z,13.80
2018-05-25T10:35:53.455Z,13.13
2018-05-25T10:38:21.118Z,13.07
2018-05-25T10:40:48.737Z,14.70
2018-05-25T10:43:16.491Z,14.10
2018-05-25T10:45:44.116Z,13.00
2018-05-25T10:48:11.806Z,13.40
2018-05-25T10:50:39.594Z,11.40
2018-05-25T10:53:07.210Z,14.33
2018-05-25T10:55:34.863Z,15.30
2018-05-25T10:58:02.470Z,13.60
2018-05-25T11:00:30.131Z,20.87
2018-05-25T11:02:57.739Z,14.10
2018-05-25T11:05:25.543Z,13.40
2018-05-25T11:07:53.314Z,12.57
2018-05-25T11:10:20.971Z,14.73
2018-05-25T11:12:48.587Z,14.13
2018-05-25T11:15:16.247Z,15.27
2018-05-25T11:17:43.853Z,12.20
2018-05-25T11:20:11.509Z,14.03
2018-05-25T11:22:39.127Z,13.70
2018-05-25T11:25:06.836Z,14.27
2018-05-25T11:27:34.566Z,12.97
2018-05-25T11:30:02.470Z,12.10
2018-05-25T11:32:30.127Z,13.03
2018-05-25T11:34:57.998Z,13.60
2018-05-25T11:37:25.712Z,13.00
2018-05-25T11:39:53.456Z,10.00
2018-05-25T11:42:21.189Z,12.67
2018-05-25T11:44:49.056Z,11.50
2018-05-25T11:47:16.820Z,9.83
2018-05-25T11:49:44.479Z,10.90
2018-05-25T11:52:12.212Z,14.07
2018-05-25T11:54:39.879Z,13.47
2018-05-25T11:57:07.494Z,12.20
2018-05-25T11:59:35.146Z,13.63
2018-05-25T12:02:02.759Z,11.90
2018-05-25T12:04:30.420Z,13.47
2018-05-25T12:06:58.035Z,10.50
2018-05-25T12:09:25.690Z,12.77
2018-05-25T12:11:53.318Z,12.13
2018-05-25T12:14:20.977Z,12.13
2018-05-25T12:16:48.601Z,12.30
2018-05-25T12:19:16.263Z,10.70
2018-05-25T12:21:43.877Z,11.47
2018-05-25T12:24:11.534Z,10.77
2018-05-25T12:26:39.139Z,9.87
2018-05-25T12:29:06.803Z,11.40
2018-05-25T12:31:34.423Z,9.77
2018-05-25T12:34:02.081Z,10.00
2018-05-25T12:36:29.699Z,9.57
2018-05-25T12:38:57.411Z,10.57
2018-05-25T12:41:25.015Z,11.77
2018-05-25T12:43:52.675Z,11.07
2018-05-25T12:46:20.291Z,11.00
2018-05-25T12:48:47.956Z,11.70
2018-05-25T12:51:15.575Z,10.27
2018-05-25T12:53:43.238Z,10.23
2018-05-25T12:56:10.849Z,9.50
2018-05-25T12:58:38.462Z,9.10
2018-05-25T13:01:06.105Z,7.57
2018-05-25T13:03:33.728Z,9.70
2018-05-25T13:06:01.388Z,9.67
2018-05-25T13:08:28.991Z,8.23
2018-05-25T13:10:56.643Z,9.00
2018-05-25T13:13:24.242Z,8.10
2018-05-25T13:15:51.894Z,9.60
2018-05-25T13:18:19.502Z,7.87
2018-05-25T13:20:47.151Z,9.23
2018-05-25T13:23:14.760Z,8.63
2018-05-25T13:25:42.411Z,8.47
2018-05-25T13:28:10.018Z,8.70
2018-05-25T13:30:37.663Z,8.50
2018-05-25T13:33:05.275Z,8.00
2018-05-25T13:35:32.922Z,8.00
2018-05-25T13:38:00.526Z,7.83
2018-05-25T13:40:28.171Z,6.60
2018-05-25T13:42:55.782Z,7.13
2018-05-25T13:45:23.427Z,6.70
2018-05-25T13:47:51.031Z,7.33
2018-05-25T13:50:18.683Z,5.77
2018-05-25T13:52:46.292Z,5.53
2018-05-25T13:55:14.840Z,5.13
2018-05-25T13:57:42.450Z,4.70
2018-05-25T14:00:10.094Z,5.50
2018-05-25T14:02:37.693Z,5.00
2018-05-25T14:05:05.334Z,5.50
2018-05-25T14:07:32.940Z,5.50
2018-05-25T14:10:00.588Z,5.80
2018-05-25T14:12:28.196Z,4.73
2018-05-25T14:14:55.839Z,4.00
2018-05-25T14:17:23.441Z,3.90
2018-05-25T14:19:51.102Z,4.80
2018-05-25T14:22:18.719Z,4.20
2018-05-25T14:24:46.368Z,5.83
2018-05-25T14:27:13.974Z,5.60
2018-05-25T14:29:41.632Z,5.10
2018-05-25T14:32:09.240Z,5.10
2018-05-25T14:34:36.887Z,4.43
2018-05-25T14:37:04.494Z,4.77
2018-05-25T14:39:32.143Z,5.70
2018-05-25T14:41:59.742Z,4.67
2018-05-25T14:44:27.395Z,4.03
2018-05-25T14:46:55.000Z,4.73
2018-05-25T14:49:22.651Z,5.00
2018-05-25T14:51:50.259Z,4.60
2018-05-25T14:54:17.901Z,3.00
2018-05-25T14:56:45.552Z,3.00
2018-05-25T14:59:13.160Z,3.00
2018-05-25T15:01:40.802Z,2.97
2018-05-25T15:04:08.411Z,3.50
2018-05-25T15:06:36.150Z,3.27
2018-05-25T15:09:03.855Z,3.80
2018-05-25T15:11:31.499Z,3.40
2018-05-25T15:13:59.113Z,4.57
2018-05-25T15:16:26.771Z,4.60
2018-05-25T15:18:54.384Z,5.00
2018-05-25T15:21:22.066Z,4.30
2018-05-25T15:23:49.680Z,4.53
2018-05-25T15:26:17.331Z,4.47
2018-05-25T15:28:44.934Z,4.23
2018-05-25T15:31:13.355Z,4.97
2018-05-25T15:33:40.975Z,4.43
2018-05-25T15:36:08.642Z,4.80
2018-05-25T15:38:36.248Z,4.60
2018-05-25T15:41:03.904Z,4.97
2018-05-25T15:43:31.572Z,4.53
2018-05-25T15:45:59.225Z,4.40
2018-05-25T15:48:26.836Z,4.77
2018-05-25T15:50:54.479Z,4.80
2018-05-25T15:53:22.089Z,3.73
2018-05-25T15:55:49.743Z,4.47
2018-05-25T15:58:17.356Z,4.57
2018-05-25T16:00:45.002Z,4.37
2018-05-25T16:03:12.608Z,4.40
2018-05-25T16:05:40.258Z,4.63
2018-05-25T16:08:07.865Z,4.83
2018-05-25T16:10:36.334Z,4.60
2018-05-25T16:13:03.938Z,5.00
2018-05-25T16:15:31.584Z,4.23
2018-05-25T16:17:59.195Z,4.33
2018-05-25T16:20:26.844Z,4.87
2018-05-25T16:22:54.451Z,4.30
2018-05-25T16:25:22.103Z,5.53
2018-05-25T16:27:49.718Z,4.70
2018-05-25T16:30:17.367Z,4.60
2018-05-25T16:32:44.978Z,5.23
2018-05-25T16:35:12.623Z,4.10
2018-05-25T16:37:40.232Z,4.87
2018-05-25T16:40:07.913Z,4.50
2018-05-25T16:42:35.527Z,4.60
2018-05-25T16:45:03.175Z,4.57
2018-05-25T16:47:30.780Z,4.70
2018-05-25T16:49:58.423Z,5.03
2018-05-25T16:52:26.026Z,3.87
2018-05-25T16:54:53.688Z,4.50
2018-05-25T16:57:21.300Z,4.93
2018-05-25T16:59:48.942Z,4.87
2018-05-25T17:02:16.553Z,4.90
2018-05-25T17:04:44.186Z,5.10
2018-05-25T17:07:11.840Z,4.73
2018-05-25T17:09:39.448Z,4.33
2018-05-25T17:12:07.095Z,5.00
2018-05-25T17:14:34.699Z,4.40
2018-05-25T17:17:02.346Z,5.07
2018-05-25T17:19:29.963Z,5.07
2018-05-25T17:21:57.606Z,4.80
2018-05-25T17:24:25.248Z,5.00
2018-05-25T17:26:52.898Z,4.60
2018-05-25T17:29:20.506Z,4.63
2018-05-25T17:31:48.161Z,4.80
2018-05-25T17:34:15.768Z,4.50
2018-05-25T17:36:43.415Z,5.50
2018-05-25T17:39:11.024Z,5.23
2018-05-25T17:41:38.687Z,5.07
2018-05-25T17:44:06.302Z,5.83
2018-05-25T17:46:33.982Z,4.77
2018-05-25T17:49:01.593Z,5.33
2018-05-25T17:51:29.242Z,6.00
2018-05-25T17:53:56.847Z,5.60
2018-05-25T17:56:24.491Z,4.90
2018-05-25T17:58:52.100Z,5.50
2018-05-25T18:01:19.741Z,5.30
2018-05-25T18:03:47.355Z,4.90
2018-05-25T18:06:15.012Z,5.20
2018-05-25T18:08:42.615Z,4.80
2018-05-25T18:11:10.271Z,5.73
2018-05-25T18:13:38.032Z,6.10
2018-05-25T18:16:05.695Z,5.60
2018-05-25T18:18:33.415Z,5.70
2018-05-25T18:21:01.124Z,5.37
2018-05-25T18:23:28.887Z,5.37
2018-05-25T18:25:56.753Z,5.40
2018-05-25T18:28:24.517Z,5.20
2018-05-25T18:30:52.388Z,5.57
2018-05-25T18:33:20.092Z,7.10
2018-05-25T18:35:47.913Z,6.47
2018-05-25T18:38:15.630Z,6.40
2018-05-25T18:40:43.442Z,6.17
2018-05-25T18:43:11.159Z,6.20
2018-05-25T18:45:38.971Z,5.63
2018-05-25T18:48:06.700Z,7.40
2018-05-25T18:50:34.398Z,5.37
2018-05-25T18:53:02.163Z,6.67
2018-05-25T18:55:29.927Z,6.00
2018-05-25T18:57:57.636Z,5.93
2018-05-25T19:00:25.455Z,6.00
2018-05-25T19:02:53.119Z,6.13
2018-05-25T19:05:20.881Z,6.27
2018-05-25T19:07:48.609Z,5.97
2018-05-25T19:10:16.412Z,6.83
2018-05-25T19:12:44.068Z,6.93
2018-05-25T19:15:11.737Z,6.60
2018-05-25T19:17:39.401Z,5.70
2018-05-25T19:20:07.162Z,5.47
2018-05-25T19:22:34.927Z,5.93
2018-05-25T19:25:02.694Z,6.17
2018-05-25T19:27:30.456Z,6.23
2018-05-25T19:29:58.119Z,6.00
2018-05-25T19:32:25.922Z,6.40
2018-05-25T19:34:53.648Z,5.67
2018-05-25T19:37:21.359Z,6.07
2018-05-25T19:39:49.069Z,5.60
2018-05-25T19:42:16.841Z,6.23
2018-05-25T19:44:44.604Z,5.77
2018-05-25T19:47:12.369Z,5.80
2018-05-25T19:49:40.098Z,6.50
2018-05-25T19:52:07.899Z,7.00
2018-05-25T19:54:35.662Z,6.10
2018-05-25T19:57:03.530Z,6.43
2018-05-25T19:59:31.293Z,5.90
2018-05-25T20:01:59.162Z,5.93
2018-05-25T20:04:26.821Z,6.10
2018-05-25T20:06:54.586Z,6.10
2018-05-25T20:09:22.304Z,5.90
2018-05-25T20:11:50.116Z,5.73
2018-05-25T20:14:17.778Z,5.63
2018-05-25T20:16:45.481Z,5.63
2018-05-25T20:19:13.297Z,5.70
2018-05-25T20:21:41.014Z,5.73
2018-05-25T20:24:09.095Z,5.47
2018-05-25T20:26:36.911Z,5.30
2018-05-25T20:29:05.491Z,5.67
2018-05-25T20:31:33.256Z,5.00
2018-05-25T20:34:01.024Z,4.87
2018-05-25T20:36:28.887Z,5.30
2018-05-25T20:38:56.608Z,5.03
2018-05-25T20:41:24.416Z,5.10
2018-05-25T20:43:52.181Z,4.87
2018-05-25T20:46:19.845Z,5.20
2018-05-25T20:48:47.632Z,4.57
2018-05-25T20:51:15.375Z,5.40
2018-05-25T20:53:43.085Z,5.20
2018-05-25T20:56:10.901Z,5.10
2018-05-25T20:58:38.665Z,5.20
2018-05-25T21:01:06.386Z,5.67
2018-05-25T21:03:34.194Z,5.00
2018-05-25T21:06:01.922Z,5.07
2018-05-25T21:08:29.725Z,5.13
2018-05-25T21:10:57.592Z,5.83
2018-05-25T21:13:25.355Z,5.53
2018-05-25T21:15:53.119Z,5.77
2018-05-25T21:18:20.887Z,5.57
2018-05-25T21:20:48.652Z,6.00
2018-05-25T21:23:16.470Z,5.83
2018-05-25T21:25:44.281Z,5.67
2018-05-25T21:28:12.104Z,5.60
2018-05-25T21:30:39.911Z,5.07
2018-05-25T21:33:07.677Z,6.33
2018-05-25T21:35:35.402Z,6.20
2018-05-25T21:38:03.118Z,6.13
2018-05-25T21:40:30.765Z,5.50
2018-05-25T21:42:58.531Z,6.80
2018-05-25T21:45:26.192Z,5.80
2018-05-25T21:47:54.061Z,5.67
2018-05-25T21:50:21.785Z,5.47
2018-05-25T21:52:49.587Z,6.30
2018-05-25T21:55:17.313Z,5.83
2018-05-25T21:57:45.058Z,5.70
2018-05-25T22:00:12.786Z,6.90
2018-05-25T22:02:40.649Z,6.80
2018-05-25T22:05:08.410Z,7.27
2018-05-25T22:07:36.175Z,6.53
2018-05-25T22:10:03.944Z,6.63
2018-05-25T22:12:31.806Z,5.60
2018-05-25T22:14:59.523Z,5.80
2018-05-25T22:17:27.336Z,6.27
2018-05-25T22:19:54.997Z,5.50
2018-05-25T22:22:22.729Z,6.60
2018-05-25T22:24:50.526Z,5.70
2018-05-25T22:27:18.291Z,6.00
2018-05-25T22:29:46.000Z,6.10
2018-05-25T22:32:13.817Z,5.70
2018-05-25T22:34:41.584Z,5.87
2018-05-25T22:37:09.247Z,5.80
2018-05-25T22:39:37.071Z,4.97
2018-05-25T22:42:04.334Z,5.17
2018-05-25T22:44:43.906Z,5.40
2018-05-25T22:47:23.652Z,5.77
2018-05-25T22:50:04.116Z,5.40
2018-05-25T22:52:36.900Z,5.30
2018-05-25T22:55:04.654Z,5.23
2018-05-25T22:57:32.323Z,5.50
2018-05-25T23:00:00.024Z,5.60
2018-05-25T23:02:27.841Z,5.37
2018-05-25T23:04:55.558Z,4.60
2018-05-25T23:07:23.277Z,5.37
2018-05-25T23:09:50.992Z,5.37
2018-05-25T23:12:18.811Z,5.40
2018-05-25T23:14:46.525Z,5.40
2018-05-25T23:17:14.234Z,5.47
2018-05-25T23:19:41.896Z,5.93
2018-05-25T23:22:09.662Z,6.27
2018-05-25T23:24:37.322Z,6.80
2018-05-25T23:27:05.088Z,6.60
2018-05-25T23:29:32.828Z,6.80
2018-05-25T23:32:00.719Z,6.53
2018-05-25T23:34:28.437Z,7.00
2018-05-25T23:36:56.147Z,7.13
2018-05-25T23:39:23.972Z,7.30
2018-05-25T23:41:51.673Z,7.33
2018-05-25T23:44:19.380Z,6.80
2018-05-25T23:46:47.100Z,7.10
2018-05-25T23:49:14.867Z,6.73
2018-05-25T23:51:42.630Z,7.30
2018-05-25T23:54:10.348Z,8.27
2018-05-25T23:56:38.058Z,7.07
2018-05-25T23:59:05.782Z,6.97
